sensor_id;sensor_type;location;lat;lon;timestamp;pressure;altitude;pressure_sealevel;temperature;humidity
21821;BME280;11073;48.586;12.066;2023-05-07T00:02:21;96422.13;;;16.21;58.58
21821;BME280;11073;48.586;12.066;2023-05-07T00:04:50;96419.41;;;16.16;58.60
21821;BME280;11073;48.586;12.066;2023-05-07T00:07:19;96416.09;;;16.14;58.62
21821;BME280;11073;48.586;12.066;2023-05-07T00:09:48;96422.94;;;16.11;58.58
21821;BME280;11073;48.586;12.066;2023-05-07T00:12:16;96418.06;;;16.08;58.84
21821;BME280;11073;48.586;12.066;2023-05-07T00:14:45;96420.50;;;16.10;58.75
21821;BME280;11073;48.586;12.066;2023-05-07T00:17:15;96421.84;;;16.07;58.71
21821;BME280;11073;48.586;12.066;2023-05-07T00:19:44;96429.50;;;16.05;58.87
21821;BME280;11073;48.586;12.066;2023-05-07T00:22:14;96425.41;;;16.03;58.62
21821;BME280;11073;48.586;12.066;2023-05-07T00:24:42;96432.78;;;15.97;58.76
21821;BME280;11073;48.586;12.066;2023-05-07T00:27:12;96425.69;;;15.91;58.80
21821;BME280;11073;48.586;12.066;2023-05-07T00:29:41;96425.13;;;15.84;58.63
21821;BME280;11073;48.586;12.066;2023-05-07T00:32:10;96424.88;;;15.80;58.95
21821;BME280;11073;48.586;12.066;2023-05-07T00:34:40;96423.75;;;15.71;58.87
21821;BME280;11073;48.586;12.066;2023-05-07T00:37:09;96418.25;;;15.61;59.08
21821;BME280;11073;48.586;12.066;2023-05-07T00:39:39;96415.28;;;15.62;59.22
21821;BME280;11073;48.586;12.066;2023-05-07T00:42:07;96413.34;;;15.58;59.07
21821;BME280;11073;48.586;12.066;2023-05-07T00:44:36;96408.72;;;15.58;59.21
21821;BME280;11073;48.586;12.066;2023-05-07T00:47:05;96422.09;;;15.60;59.25
21821;BME280;11073;48.586;12.066;2023-05-07T00:49:37;96407.09;;;15.57;59.42
21821;BME280;11073;48.586;12.066;2023-05-07T00:52:09;96416.63;;;15.60;59.55
21821;BME280;11073;48.586;12.066;2023-05-07T00:54:40;96414.41;;;15.57;59.38
21821;BME280;11073;48.586;12.066;2023-05-07T00:57:10;96407.31;;;15.56;59.56
21821;BME280;11073;48.586;12.066;2023-05-07T00:59:38;96417.69;;;15.54;59.70
21821;BME280;11073;48.586;12.066;2023-05-07T01:02:08;96411.44;;;15.53;59.62
21821;BME280;11073;48.586;12.066;2023-05-07T01:04:37;96409.50;;;15.54;59.70
21821;BME280;11073;48.586;12.066;2023-05-07T01:07:08;96411.44;;;15.53;59.86
21821;BME280;11073;48.586;12.066;2023-05-07T01:09:38;96403.25;;;15.53;59.98
21821;BME280;11073;48.586;12.066;2023-05-07T01:12:07;96411.69;;;15.47;60.04
21821;BME280;11073;48.586;12.066;2023-05-07T01:14:36;96409.25;;;15.45;60.10
21821;BME280;11073;48.586;12.066;2023-05-07T01:17:05;96408.69;;;15.43;60.02
21821;BME280;11073;48.586;12.066;2023-05-07T01:19:36;96411.41;;;15.38;59.89
21821;BME280;11073;48.586;12.066;2023-05-07T01:22:09;96414.94;;;15.33;59.96
21821;BME280;11073;48.586;12.066;2023-05-07T01:24:51;96409.47;;;15.28;60.06
21821;BME280;11073;48.586;12.066;2023-05-07T01:27:20;96406.19;;;15.26;59.90
21821;BME280;11073;48.586;12.066;2023-05-07T01:29:51;96409.47;;;15.23;60.10
21821;BME280;11073;48.586;12.066;2023-05-07T01:32:24;96400.47;;;15.23;60.09
21821;BME280;11073;48.586;12.066;2023-05-07T01:34:57;96402.88;;;15.19;60.07
21821;BME280;11073;48.586;12.066;2023-05-07T01:37:27;96400.16;;;15.19;60.25
21821;BME280;11073;48.586;12.066;2023-05-07T01:39:58;96400.75;;;15.21;60.31
21821;BME280;11073;48.586;12.066;2023-05-07T01:42:26;96393.34;;;15.16;60.43
21821;BME280;11073;48.586;12.066;2023-05-07T01:44:55;96396.31;;;15.10;60.38
21821;BME280;11073;48.586;12.066;2023-05-07T01:47:24;96397.41;;;15.04;60.36
21821;BME280;11073;48.586;12.066;2023-05-07T01:49:54;96395.22;;;15.01;60.47
21821;BME280;11073;48.586;12.066;2023-05-07T01:52:23;96388.13;;;15.00;60.35
21821;BME280;11073;48.586;12.066;2023-05-07T01:54:53;96397.63;;;14.97;60.57
21821;BME280;11073;48.586;12.066;2023-05-07T01:57:23;96390.28;;;14.98;60.51
21821;BME280;11073;48.586;12.066;2023-05-07T01:59:51;96394.09;;;14.97;60.70
21821;BME280;11073;48.586;12.066;2023-05-07T02:02:20;96389.19;;;14.94;60.64
21821;BME280;11073;48.586;12.066;2023-05-07T02:04:50;96400.63;;;14.90;60.54
21821;BME280;11073;48.586;12.066;2023-05-07T02:07:20;96391.91;;;14.88;60.75
21821;BME280;11073;48.586;12.066;2023-05-07T02:09:49;96390.53;;;14.86;60.67
21821;BME280;11073;48.586;12.066;2023-05-07T02:12:19;96395.69;;;14.82;60.68
21821;BME280;11073;48.586;12.066;2023-05-07T02:14:49;96394.88;;;14.82;60.87
21821;BME280;11073;48.586;12.066;2023-05-07T02:17:18;96403.00;;;14.77;60.77
21821;BME280;11073;48.586;12.066;2023-05-07T02:19:47;96399.22;;;14.78;60.75
21821;BME280;11073;48.586;12.066;2023-05-07T02:22:16;96398.66;;;14.76;60.74
21821;BME280;11073;48.586;12.066;2023-05-07T02:24:45;96393.19;;;14.71;60.66
21821;BME280;11073;48.586;12.066;2023-05-07T02:27:14;96397.81;;;14.70;61.05
21821;BME280;11073;48.586;12.066;2023-05-07T02:29:44;96398.38;;;14.72;61.09
21821;BME280;11073;48.586;12.066;2023-05-07T02:32:14;96402.44;;;14.70;60.98
21821;BME280;11073;48.586;12.066;2023-05-07T02:34:43;96400.53;;;14.65;61.44
21821;BME280;11073;48.586;12.066;2023-05-07T02:37:11;96401.31;;;14.60;61.52
21821;BME280;11073;48.586;12.066;2023-05-07T02:39:40;96403.22;;;14.60;61.39
21821;BME280;11073;48.586;12.066;2023-05-07T02:42:09;96403.72;;;14.52;61.54
21821;BME280;11073;48.586;12.066;2023-05-07T02:44:38;96400.72;;;14.53;61.54
21821;BME280;11073;48.586;12.066;2023-05-07T02:47:06;96407.00;;;14.54;61.41
21821;BME280;11073;48.586;12.066;2023-05-07T02:49:39;96393.38;;;14.49;61.69
21821;BME280;11073;48.586;12.066;2023-05-07T02:52:08;96395.81;;;14.50;61.79
21821;BME280;11073;48.586;12.066;2023-05-07T02:54:37;96399.88;;;14.48;61.46
21821;BME280;11073;48.586;12.066;2023-05-07T02:57:06;96392.78;;;14.47;61.54
21821;BME280;11073;48.586;12.066;2023-05-07T02:59:34;96398.22;;;14.47;61.57
21821;BME280;11073;48.586;12.066;2023-05-07T03:02:03;96386.72;;;14.40;61.47
21821;BME280;11073;48.586;12.066;2023-05-07T03:04:32;96392.44;;;14.38;61.47
21821;BME280;11073;48.586;12.066;2023-05-07T03:07:02;96396.81;;;14.39;61.63
21821;BME280;11073;48.586;12.066;2023-05-07T03:09:31;96389.69;;;14.33;61.37
21821;BME280;11073;48.586;12.066;2023-05-07T03:11:59;96396.25;;;14.37;61.71
21821;BME280;11073;48.586;12.066;2023-05-07T03:14:28;96398.38;;;14.30;61.42
21821;BME280;11073;48.586;12.066;2023-05-07T03:16:57;96394.84;;;14.29;61.64
21821;BME280;11073;48.586;12.066;2023-05-07T03:19:26;96392.13;;;14.29;61.44
21821;BME280;11073;48.586;12.066;2023-05-07T03:21:55;96379.00;;;14.26;61.22
21821;BME280;11073;48.586;12.066;2023-05-07T03:24:25;96389.91;;;14.21;61.42
21821;BME280;11073;48.586;12.066;2023-05-07T03:26:54;96376.47;;;14.10;61.42
21821;BME280;11073;48.586;12.066;2023-05-07T03:29:23;96394.22;;;14.17;61.64
21821;BME280;11073;48.586;12.066;2023-05-07T03:31:52;96395.03;;;14.18;61.54
21821;BME280;11073;48.586;12.066;2023-05-07T03:34:21;96394.22;;;14.17;61.80
21821;BME280;11073;48.586;12.066;2023-05-07T03:36:51;96398.03;;;14.16;62.10
21821;BME280;11073;48.586;12.066;2023-05-07T03:39:22;96398.56;;;14.18;62.07
21821;BME280;11073;48.586;12.066;2023-05-07T03:41:52;96395.06;;;14.23;62.29
21821;BME280;11073;48.586;12.066;2023-05-07T03:44:21;96392.63;;;14.21;62.16
21821;BME280;11073;48.586;12.066;2023-05-07T03:46:51;96403.47;;;14.16;62.06
21821;BME280;11073;48.586;12.066;2023-05-07T03:49:20;96399.06;;;14.10;62.12
21821;BME280;11073;48.586;12.066;2023-05-07T03:51:49;96409.34;;;14.03;62.11
21821;BME280;11073;48.586;12.066;2023-05-07T03:54:17;96409.34;;;13.98;62.38
21821;BME280;11073;48.586;12.066;2023-05-07T03:56:47;96401.69;;;13.95;62.26
21821;BME280;11073;48.586;12.066;2023-05-07T03:59:17;96412.88;;;13.98;62.39
21821;BME280;11073;48.586;12.066;2023-05-07T04:01:47;96403.28;;;13.91;62.41
21821;BME280;11073;48.586;12.066;2023-05-07T04:04:19;96410.09;;;13.93;62.22
21821;BME280;11073;48.586;12.066;2023-05-07T04:06:49;96412.84;;;13.93;62.20
21821;BME280;11073;48.586;12.066;2023-05-07T04:09:19;96419.63;;;13.91;62.22
21821;BME280;11073;48.586;12.066;2023-05-07T04:11:48;96417.47;;;13.93;62.11
21821;BME280;11073;48.586;12.066;2023-05-07T04:14:18;96421.00;;;13.93;62.32
21821;BME280;11073;48.586;12.066;2023-05-07T04:16:46;96423.44;;;13.95;62.27
21821;BME280;11073;48.586;12.066;2023-05-07T04:19:15;96428.88;;;13.95;62.47
21821;BME280;11073;48.586;12.066;2023-05-07T04:21:46;96440.31;;;13.92;62.43
21821;BME280;11073;48.586;12.066;2023-05-07T04:24:14;96430.75;;;13.89;62.44
21821;BME280;11073;48.586;12.066;2023-05-07T04:26:44;96428.56;;;13.86;62.28
21821;BME280;11073;48.586;12.066;2023-05-07T04:29:13;96439.19;;;13.88;62.43
21821;BME280;11073;48.586;12.066;2023-05-07T04:31:43;96435.09;;;13.85;62.33
21821;BME280;11073;48.586;12.066;2023-05-07T04:34:13;96435.03;;;13.80;62.50
21821;BME280;11073;48.586;12.066;2023-05-07T04:36:42;96435.28;;;13.78;62.54
21821;BME280;11073;48.586;12.066;2023-05-07T04:39:13;96433.06;;;13.75;62.96
21821;BME280;11073;48.586;12.066;2023-05-07T04:41:44;96441.56;;;13.79;62.84
21821;BME280;11073;48.586;12.066;2023-05-07T04:44:13;96431.22;;;13.81;63.03
21821;BME280;11073;48.586;12.066;2023-05-07T04:46:44;96430.97;;;13.83;62.75
21821;BME280;11073;48.586;12.066;2023-05-07T04:49:13;96428.81;;;13.85;63.14
21821;BME280;11073;48.586;12.066;2023-05-07T04:51:41;96431.00;;;13.88;63.11
21821;BME280;11073;48.586;12.066;2023-05-07T04:54:11;96437.00;;;13.90;63.14
21821;BME280;11073;48.586;12.066;2023-05-07T04:56:40;96435.38;;;13.89;63.32
21821;BME280;11073;48.586;12.066;2023-05-07T04:59:09;96436.78;;;13.91;63.14
21821;BME280;11073;48.586;12.066;2023-05-07T05:01:38;96439.22;;;13.93;63.52
21821;BME280;11073;48.586;12.066;2023-05-07T05:04:09;96437.38;;;13.98;63.32
21821;BME280;11073;48.586;12.066;2023-05-07T05:06:39;96436.56;;;14.03;63.23
21821;BME280;11073;48.586;12.066;2023-05-07T05:09:10;96430.03;;;13.99;63.47
21821;BME280;11073;48.586;12.066;2023-05-07T05:11:40;96433.31;;;14.01;63.36
21821;BME280;11073;48.586;12.066;2023-05-07T05:14:09;96431.13;;;14.03;63.84
21821;BME280;11073;48.586;12.066;2023-05-07T05:16:37;96434.94;;;14.02;63.60
21821;BME280;11073;48.586;12.066;2023-05-07T05:19:06;96435.50;;;14.04;63.84
21821;BME280;11073;48.586;12.066;2023-05-07T05:21:39;96443.69;;;14.09;63.57
21821;BME280;11073;48.586;12.066;2023-05-07T05:24:09;96454.59;;;14.09;63.94
21821;BME280;11073;48.586;12.066;2023-05-07T05:26:38;96452.41;;;14.11;64.05
21821;BME280;11073;48.586;12.066;2023-05-07T05:29:07;96458.44;;;14.13;63.81
21821;BME280;11073;48.586;12.066;2023-05-07T05:31:39;96457.91;;;14.16;63.97
21821;BME280;11073;48.586;12.066;2023-05-07T05:34:09;96456.06;;;14.22;64.03
21821;BME280;11073;48.586;12.066;2023-05-07T05:36:39;96455.56;;;14.30;64.28
21821;BME280;11073;48.586;12.066;2023-05-07T05:39:08;96457.50;;;14.34;64.26
21821;BME280;11073;48.586;12.066;2023-05-07T05:41:37;96460.28;;;14.45;64.09
21821;BME280;11073;48.586;12.066;2023-05-07T05:44:06;96460.38;;;14.50;64.18
21821;BME280;11073;48.586;12.066;2023-05-07T05:46:37;96464.47;;;14.52;64.17
21821;BME280;11073;48.586;12.066;2023-05-07T05:49:06;96451.09;;;14.51;64.40
21821;BME280;11073;48.586;12.066;2023-05-07T05:51:35;96451.38;;;14.49;64.43
21821;BME280;11073;48.586;12.066;2023-05-07T05:54:05;96457.66;;;14.55;64.66
21821;BME280;11073;48.586;12.066;2023-05-07T05:56:36;96445.16;;;14.59;64.54
21821;BME280;11073;48.586;12.066;2023-05-07T05:59:05;96443.53;;;14.58;64.68
21821;BME280;11073;48.586;12.066;2023-05-07T06:01:34;96442.47;;;14.64;64.82
21821;BME280;11073;48.586;12.066;2023-05-07T06:04:04;96449.06;;;14.73;65.10
21821;BME280;11073;48.586;12.066;2023-05-07T06:06:34;96443.06;;;14.76;65.18
21821;BME280;11073;48.586;12.066;2023-05-07T06:09:03;96445.28;;;14.79;65.51
21821;BME280;11073;48.586;12.066;2023-05-07T06:11:39;96444.22;;;14.90;65.53
21821;BME280;11073;48.586;12.066;2023-05-07T06:14:10;96446.44;;;14.94;65.70
21821;BME280;11073;48.586;12.066;2023-05-07T06:16:38;96443.47;;;15.00;66.15
21821;BME280;11073;48.586;12.066;2023-05-07T06:19:08;96446.75;;;15.12;66.23
21821;BME280;11073;48.586;12.066;2023-05-07T06:21:38;96440.00;;;15.25;66.50
21821;BME280;11073;48.586;12.066;2023-05-07T06:24:07;96447.13;;;15.36;66.69
21821;BME280;11073;48.586;12.066;2023-05-07T06:26:39;96460.50;;;15.48;66.68
21821;BME280;11073;48.586;12.066;2023-05-07T06:29:08;96455.91;;;15.54;66.79
21821;BME280;11073;48.586;12.066;2023-05-07T06:31:39;96455.94;;;15.69;66.82
21821;BME280;11073;48.586;12.066;2023-05-07T06:34:09;96466.91;;;15.79;67.18
21821;BME280;11073;48.586;12.066;2023-05-07T06:36:41;96467.44;;;15.91;66.98
21821;BME280;11073;48.586;12.066;2023-05-07T06:39:18;96482.75;;;16.08;67.28
21821;BME280;11073;48.586;12.066;2023-05-07T06:41:49;96472.38;;;16.15;66.89
21821;BME280;11073;48.586;12.066;2023-05-07T06:44:24;96471.84;;;16.23;67.15
21821;BME280;11073;48.586;12.066;2023-05-07T06:47:07;96479.47;;;16.36;67.04
21821;BME280;11073;48.586;12.066;2023-05-07T06:49:38;96473.72;;;16.43;66.87
21821;BME280;11073;48.586;12.066;2023-05-07T06:52:06;96486.00;;;16.50;66.75
21821;BME280;11073;48.586;12.066;2023-05-07T06:54:35;96483.56;;;16.54;66.83
21821;BME280;11073;48.586;12.066;2023-05-07T06:57:06;96495.59;;;16.53;66.76
21821;BME280;11073;48.586;12.066;2023-05-07T06:59:35;96492.56;;;16.54;66.72
21821;BME280;11073;48.586;12.066;2023-05-07T07:02:04;96486.81;;;16.61;66.58
21821;BME280;11073;48.586;12.066;2023-05-07T07:04:32;96500.50;;;16.66;66.47
21821;BME280;11073;48.586;12.066;2023-05-07T07:07:06;96495.03;;;16.66;66.35
21821;BME280;11073;48.586;12.066;2023-05-07T07:09:35;96501.59;;;16.75;66.42
21821;BME280;11073;48.586;12.066;2023-05-07T07:12:07;96500.22;;;16.88;66.54
21821;BME280;11073;48.586;12.066;2023-05-07T07:14:38;96507.84;;;16.96;66.40
21821;BME280;11073;48.586;12.066;2023-05-07T07:17:07;96507.56;;;17.03;66.19
21821;BME280;11073;48.586;12.066;2023-05-07T07:19:36;96503.16;;;17.02;66.10
21821;BME280;11073;48.586;12.066;2023-05-07T07:22:06;96503.44;;;17.11;66.04
21821;BME280;11073;48.586;12.066;2023-05-07T07:24:34;96499.59;;;17.17;65.88
21821;BME280;11073;48.586;12.066;2023-05-07T07:27:07;96500.09;;;17.24;65.80
21821;BME280;11073;48.586;12.066;2023-05-07T07:29:36;96498.97;;;17.30;65.75
21821;BME280;11073;48.586;12.066;2023-05-07T07:32:05;96494.53;;;17.44;65.75
21821;BME280;11073;48.586;12.066;2023-05-07T07:34:33;96495.00;;;17.61;65.30
21821;BME280;11073;48.586;12.066;2023-05-07T07:37:03;96494.13;;;17.76;65.48
21821;BME280;11073;48.586;12.066;2023-05-07T07:39:36;96495.91;;;17.96;64.89
21821;BME280;11073;48.586;12.066;2023-05-07T07:42:07;96502.09;;;18.12;64.58
21821;BME280;11073;48.586;12.066;2023-05-07T07:44:37;96505.03;;;18.26;64.20
21821;BME280;11073;48.586;12.066;2023-05-07T07:47:10;96503.81;;;18.37;64.08
21821;BME280;11073;48.586;12.066;2023-05-07T07:49:40;96503.75;;;18.47;63.82
21821;BME280;11073;48.586;12.066;2023-05-07T07:52:09;96500.06;;;18.62;63.16
21821;BME280;11073;48.586;12.066;2023-05-07T07:54:39;96509.84;;;18.73;63.13
21821;BME280;11073;48.586;12.066;2023-05-07T07:57:10;96512.75;;;18.82;62.94
21821;BME280;11073;48.586;12.066;2023-05-07T07:59:39;96508.31;;;18.91;62.58
21821;BME280;11073;48.586;12.066;2023-05-07T08:02:11;96513.44;;;18.97;61.84
21821;BME280;11073;48.586;12.066;2023-05-07T08:04:40;96517.50;;;19.05;61.87
21821;BME280;11073;48.586;12.066;2023-05-07T08:07:28;96525.59;;;19.15;61.86
21821;BME280;11073;48.586;12.066;2023-05-07T08:09:57;96525.47;;;19.25;61.57
21821;BME280;11073;48.586;12.066;2023-05-07T08:12:27;96518.53;;;19.33;61.38
21821;BME280;11073;48.586;12.066;2023-05-07T08:14:56;96523.66;;;19.40;61.25
21821;BME280;11073;48.586;12.066;2023-05-07T08:17:25;96525.19;;;19.51;61.05
21821;BME280;11073;48.586;12.066;2023-05-07T08:19:55;96521.56;;;19.55;60.61
21821;BME280;11073;48.586;12.066;2023-05-07T08:22:24;96510.03;;;19.59;60.70
21821;BME280;11073;48.586;12.066;2023-05-07T08:24:53;96525.16;;;19.75;60.69
21821;BME280;11073;48.586;12.066;2023-05-07T08:27:23;96530.25;;;19.87;60.55
21821;BME280;11073;48.586;12.066;2023-05-07T08:29:53;96528.47;;;19.96;59.98
21821;BME280;11073;48.586;12.066;2023-05-07T08:32:22;96531.66;;;20.03;59.87
21821;BME280;11073;48.586;12.066;2023-05-07T08:34:51;96530.41;;;20.14;59.52
21821;BME280;11073;48.586;12.066;2023-05-07T08:37:21;96536.13;;;20.36;59.64
21821;BME280;11073;48.586;12.066;2023-05-07T08:39:50;96531.22;;;20.52;59.03
21821;BME280;11073;48.586;12.066;2023-05-07T08:42:23;96525.97;;;20.70;58.75
21821;BME280;11073;48.586;12.066;2023-05-07T08:44:57;96528.84;;;20.78;57.93
21821;BME280;11073;48.586;12.066;2023-05-07T08:47:32;96532.56;;;20.87;57.82
21821;BME280;11073;48.586;12.066;2023-05-07T08:50:04;96540.72;;;21.06;57.83
21821;BME280;11073;48.586;12.066;2023-05-07T08:52:35;96533.41;;;21.15;56.97
21821;BME280;11073;48.586;12.066;2023-05-07T08:55:04;96533.84;;;21.36;57.08
21821;BME280;11073;48.586;12.066;2023-05-07T08:57:35;96537.63;;;21.40;56.45
21821;BME280;11073;48.586;12.066;2023-05-07T09:00:11;96534.66;;;21.51;55.99
21821;BME280;11073;48.586;12.066;2023-05-07T09:02:41;96540.09;;;21.56;55.63
21821;BME280;11073;48.586;12.066;2023-05-07T09:05:11;96540.47;;;21.77;55.66
21821;BME280;11073;48.586;12.066;2023-05-07T09:07:40;96537.78;;;21.99;55.90
21821;BME280;11073;48.586;12.066;2023-05-07T09:10:11;96534.22;;;21.98;54.79
21821;BME280;11073;48.586;12.066;2023-05-07T09:12:41;96531.47;;;21.98;55.00
21821;BME280;11073;48.586;12.066;2023-05-07T09:15:13;96541.97;;;22.24;54.74
21821;BME280;11073;48.586;12.066;2023-05-07T09:17:44;96532.69;;;22.42;54.65
21821;BME280;11073;48.586;12.066;2023-05-07T09:20:13;96532.38;;;22.66;54.36
21821;BME280;11073;48.586;12.066;2023-05-07T09:22:42;96539.41;;;22.72;53.88
21821;BME280;11073;48.586;12.066;2023-05-07T09:25:14;96534.53;;;22.92;53.29
21821;BME280;11073;48.586;12.066;2023-05-07T09:27:44;96524.38;;;23.01;52.62
21821;BME280;11073;48.586;12.066;2023-05-07T09:30:15;96524.47;;;23.18;52.53
21821;BME280;11073;48.586;12.066;2023-05-07T09:32:44;96522.66;;;23.14;52.07
21821;BME280;11073;48.586;12.066;2023-05-07T09:35:18;96524.75;;;23.48;51.44
21821;BME280;11073;48.586;12.066;2023-05-07T09:37:53;96520.34;;;23.78;51.03
21821;BME280;11073;48.586;12.066;2023-05-07T09:40:25;96525.69;;;23.83;50.33
21821;BME280;11073;48.586;12.066;2023-05-07T09:42:56;96529.66;;;24.08;49.66
21821;BME280;11073;48.586;12.066;2023-05-07T09:45:40;96532.28;;;24.13;48.89
21821;BME280;11073;48.586;12.066;2023-05-07T09:48:12;96533.56;;;24.07;48.61
21821;BME280;11073;48.586;12.066;2023-05-07T09:50:48;96527.75;;;24.34;48.17
21821;BME280;11073;48.586;12.066;2023-05-07T09:53:21;96536.03;;;24.60;47.71
21821;BME280;11073;48.586;12.066;2023-05-07T09:55:53;96537.66;;;24.79;46.62
21821;BME280;11073;48.586;12.066;2023-05-07T09:58:22;96532.13;;;24.79;45.88
21821;BME280;11073;48.586;12.066;2023-05-07T10:00:54;96530.75;;;25.19;45.64
21821;BME280;11073;48.586;12.066;2023-05-07T10:03:25;96530.41;;;25.29;44.40
21821;BME280;11073;48.586;12.066;2023-05-07T10:06:03;96524.06;;;25.20;43.68
21821;BME280;11073;48.586;12.066;2023-05-07T10:08:33;96537.94;;;25.03;42.49
21821;BME280;11073;48.586;12.066;2023-05-07T10:11:06;96532.16;;;25.34;42.21
21821;BME280;11073;48.586;12.066;2023-05-07T10:13:35;96539.81;;;25.46;41.70
21821;BME280;11073;48.586;12.066;2023-05-07T10:16:09;96536.63;;;25.65;41.10
21821;BME280;11073;48.586;12.066;2023-05-07T10:18:46;96536.31;;;25.96;40.26
21821;BME280;11073;48.586;12.066;2023-05-07T10:21:21;96530.56;;;26.30;39.85
21821;BME280;11073;48.586;12.066;2023-05-07T10:23:58;96530.03;;;26.58;39.39
21821;BME280;11073;48.586;12.066;2023-05-07T10:26:29;96530.22;;;26.74;39.06
21821;BME280;11073;48.586;12.066;2023-05-07T10:29:02;96524.84;;;26.89;38.95
21821;BME280;11073;48.586;12.066;2023-05-07T10:31:44;96530.63;;;27.17;38.15
21821;BME280;11073;48.586;12.066;2023-05-07T10:34:21;96524.53;;;27.36;37.40
21821;BME280;11073;48.586;12.066;2023-05-07T10:36:51;96527.06;;;27.29;36.55
21821;BME280;11073;48.586;12.066;2023-05-07T10:39:21;96526.19;;;27.04;36.16
21821;BME280;11073;48.586;12.066;2023-05-07T10:41:51;96523.69;;;26.28;36.42
21821;BME280;11073;48.586;12.066;2023-05-07T10:44:27;96526.69;;;25.72;36.38
21821;BME280;11073;48.586;12.066;2023-05-07T10:47:07;96525.25;;;25.96;37.01
21821;BME280;11073;48.586;12.066;2023-05-07T10:52:41;96520.22;;;26.93;37.17
21821;BME280;11073;48.586;12.066;2023-05-07T10:55:22;96520.59;;;27.25;37.15
21821;BME280;11073;48.586;12.066;2023-05-07T10:58:22;96524.34;;;27.54;36.77
21821;BME280;11073;48.586;12.066;2023-05-07T11:01:10;96522.84;;;27.81;36.14
21821;BME280;11073;48.586;12.066;2023-05-07T11:04:13;96525.28;;;27.94;35.94
21821;BME280;11073;48.586;12.066;2023-05-07T11:10:12;96519.03;;;27.97;35.10
21821;BME280;11073;48.586;12.066;2023-05-07T11:12:54;96510.19;;;28.20;35.20
21821;BME280;11073;48.586;12.066;2023-05-07T11:15:35;96515.50;;;28.37;34.92
21821;BME280;11073;48.586;12.066;2023-05-07T11:18:11;96511.28;;;28.55;35.13
21821;BME280;11073;48.586;12.066;2023-05-07T11:20:56;96518.44;;;28.69;34.71
21821;BME280;11073;48.586;12.066;2023-05-07T11:23:58;96517.75;;;28.60;34.42
21821;BME280;11073;48.586;12.066;2023-05-07T11:26:48;96521.53;;;28.15;34.93
21821;BME280;11073;48.586;12.066;2023-05-07T11:29:20;96518.28;;;28.37;35.23
21821;BME280;11073;48.586;12.066;2023-05-07T11:31:55;96517.28;;;28.70;34.74
21821;BME280;11073;48.586;12.066;2023-05-07T11:34:30;96516.34;;;28.66;34.37
21821;BME280;11073;48.586;12.066;2023-05-07T11:37:01;96510.81;;;28.53;34.66
21821;BME280;11073;48.586;12.066;2023-05-07T11:39:41;96504.75;;;28.64;34.63
21821;BME280;11073;48.586;12.066;2023-05-07T11:42:25;96500.50;;;28.82;34.51
21821;BME280;11073;48.586;12.066;2023-05-07T11:44:54;96501.84;;;28.60;34.57
21821;BME280;11073;48.586;12.066;2023-05-07T11:47:22;96494.09;;;28.94;34.57
21821;BME280;11073;48.586;12.066;2023-05-07T11:49:53;96508.91;;;28.70;34.22
21821;BME280;11073;48.586;12.066;2023-05-07T11:52:24;96499.97;;;28.36;33.81
21821;BME280;11073;48.586;12.066;2023-05-07T11:54:53;96504.72;;;28.23;33.73
21821;BME280;11073;48.586;12.066;2023-05-07T11:57:23;96510.16;;;28.44;34.30
21821;BME280;11073;48.586;12.066;2023-05-07T11:59:53;96497.91;;;28.89;34.16
21821;BME280;11073;48.586;12.066;2023-05-07T12:02:21;96502.72;;;29.04;33.82
21821;BME280;11073;48.586;12.066;2023-05-07T12:04:53;96502.81;;;28.92;33.60
21821;BME280;11073;48.586;12.066;2023-05-07T12:07:25;96493.56;;;29.04;33.76
21821;BME280;11073;48.586;12.066;2023-05-07T12:09:54;96502.47;;;29.09;32.60
21821;BME280;11073;48.586;12.066;2023-05-07T12:12:23;96493.28;;;28.93;32.45
21821;BME280;11073;48.586;12.066;2023-05-07T12:14:52;96500.41;;;28.78;33.15
21821;BME280;11073;48.586;12.066;2023-05-07T12:17:20;96497.38;;;28.55;33.25
21821;BME280;11073;48.586;12.066;2023-05-07T12:19:49;96500.31;;;28.47;33.49
21821;BME280;11073;48.586;12.066;2023-05-07T12:22:19;96500.44;;;28.26;33.31
21821;BME280;11073;48.586;12.066;2023-05-07T12:24:56;96504.41;;;27.64;33.67
21821;BME280;11073;48.586;12.066;2023-05-07T12:27:25;96499.06;;;27.46;33.96
21821;BME280;11073;48.586;12.066;2023-05-07T12:29:54;96506.44;;;27.30;34.43
21821;BME280;11073;48.586;12.066;2023-05-07T12:32:23;96495.91;;;27.36;34.63
21821;BME280;11073;48.586;12.066;2023-05-07T12:34:51;96491.94;;;27.70;34.91
21821;BME280;11073;48.586;12.066;2023-05-07T12:37:24;96488.09;;;27.74;35.20
21821;BME280;11073;48.586;12.066;2023-05-07T12:40:08;96497.22;;;27.99;34.81
21821;BME280;11073;48.586;12.066;2023-05-07T12:42:39;96495.34;;;28.40;35.00
21821;BME280;11073;48.586;12.066;2023-05-07T12:45:09;96493.41;;;28.56;34.28
21821;BME280;11073;48.586;12.066;2023-05-07T12:47:38;96482.44;;;28.76;34.24
21821;BME280;11073;48.586;12.066;2023-05-07T12:50:07;96482.69;;;28.99;34.03
21821;BME280;11073;48.586;12.066;2023-05-07T12:52:36;96478.50;;;29.21;33.85
21821;BME280;11073;48.586;12.066;2023-05-07T12:55:08;96478.56;;;29.40;33.37
21821;BME280;11073;48.586;12.066;2023-05-07T12:57:38;96475.63;;;29.49;32.93
21821;BME280;11073;48.586;12.066;2023-05-07T13:00:08;96476.09;;;29.66;33.24
21821;BME280;11073;48.586;12.066;2023-05-07T13:02:38;96475.69;;;29.84;32.97
21821;BME280;11073;48.586;12.066;2023-05-07T13:05:08;96466.44;;;29.80;33.12
21821;BME280;11073;48.586;12.066;2023-05-07T13:07:37;96465.38;;;29.84;33.10
21821;BME280;11073;48.586;12.066;2023-05-07T13:10:09;96462.16;;;29.66;32.33
21821;BME280;11073;48.586;12.066;2023-05-07T13:12:37;96456.75;;;29.42;32.73
21821;BME280;11073;48.586;12.066;2023-05-07T13:15:07;96452.84;;;29.47;32.15
21821;BME280;11073;48.586;12.066;2023-05-07T13:17:35;96448.09;;;29.47;32.17